createdAt,value
2022-10-28T00:00:25.700Z,22.77
2022-10-28T00:02:56.397Z,23.27
2022-10-28T00:05:34.768Z,22.87
2022-10-28T00:08:20.198Z,18.00
2022-10-28T00:10:52.278Z,19.27
2022-10-28T00:13:25.820Z,17.93
2022-10-28T00:15:54.824Z,26.67
2022-10-28T00:18:28.198Z,16.20
2022-10-28T00:21:07.137Z,18.53
2022-10-28T00:23:38.756Z,23.27
2022-10-28T00:26:12.786Z,19.80
2022-10-28T00:28:46.081Z,25.53
2022-10-28T00:31:19.748Z,19.70
2022-10-28T00:33:54.555Z,25.43
2022-10-28T00:36:25.578Z,23.87
2022-10-28T00:38:59.562Z,19.07
2022-10-28T00:41:35.976Z,19.30
2022-10-28T00:44:43.901Z,17.43
2022-10-28T00:47:18.027Z,19.43
2022-10-28T00:49:50.742Z,16.20
2022-10-28T00:52:25.350Z,17.00
2022-10-28T00:54:55.242Z,20.10
2022-10-28T00:57:32.328Z,21.83
2022-10-28T01:00:19.818Z,19.87
2022-10-28T01:02:52.946Z,20.53
2022-10-28T03:08:55.731Z,16.33
2022-10-28T03:11:24.759Z,15.70
2022-10-28T03:14:02.286Z,17.37
2022-10-28T03:16:36.954Z,18.47
2022-10-28T03:19:05.838Z,20.63
2022-10-28T03:21:39.556Z,13.90
2022-10-28T03:24:13.041Z,14.27
2022-10-28T03:26:43.456Z,15.57
2022-10-28T03:29:16.993Z,14.53
2022-10-28T03:31:46.004Z,13.40
2022-10-28T03:34:16.124Z,14.47
2022-10-28T03:36:58.042Z,18.27
2022-10-28T03:39:31.384Z,19.70
2022-10-28T03:42:02.252Z,16.13
2022-10-28T03:44:31.047Z,15.63
2022-10-28T03:46:59.898Z,17.27
2022-10-28T03:49:28.968Z,14.10
2022-10-28T03:51:57.884Z,14.73
2022-10-28T03:54:28.127Z,13.57
2022-10-28T03:56:57.097Z,17.27
2022-10-28T03:59:29.735Z,18.37
2022-10-28T04:01:59.765Z,14.00
2022-10-28T04:04:30.792Z,15.17
2022-10-28T04:06:59.455Z,13.50
2022-10-28T04:09:29.414Z,15.30
2022-10-28T04:11:57.782Z,11.90
2022-10-28T04:14:26.179Z,12.83
2022-10-28T04:16:54.579Z,12.73
2022-10-28T04:19:23.071Z,12.57
2022-10-28T04:21:52.007Z,14.77
2022-10-28T04:24:20.368Z,13.60
2022-10-28T04:26:50.258Z,16.67
2022-10-28T04:29:19.658Z,13.47
2022-10-28T04:31:51.358Z,12.13
2022-10-28T04:34:20.959Z,15.67
2022-10-28T04:36:49.604Z,16.27
2022-10-28T04:39:18.567Z,12.67
2022-10-28T04:41:47.342Z,15.07
2022-10-28T04:44:17.350Z,14.30
2022-10-28T04:46:45.887Z,13.87
2022-10-28T04:49:14.410Z,16.47
2022-10-28T04:51:43.026Z,13.13
2022-10-28T04:54:11.638Z,14.67
2022-10-28T04:56:40.258Z,13.37
2022-10-28T04:59:08.885Z,13.17
2022-10-28T05:01:53.257Z,13.87
2022-10-28T05:04:22.266Z,15.13
2022-10-28T05:06:50.671Z,16.13
2022-10-28T05:09:19.234Z,13.23
2022-10-28T05:11:47.866Z,15.13
2022-10-28T05:14:16.509Z,16.10
2022-10-28T05:17:06.717Z,14.30
2022-10-28T05:19:35.425Z,16.13
2022-10-28T05:22:04.231Z,13.93
2022-10-28T05:24:32.863Z,14.57
2022-10-28T05:27:02.063Z,14.23
2022-10-28T05:29:33.289Z,16.73
2022-10-28T05:32:02.309Z,14.10
2022-10-28T05:34:32.266Z,16.70
2022-10-28T05:37:01.091Z,12.27
2022-10-28T05:39:29.844Z,15.43
2022-10-28T05:41:58.432Z,20.07
2022-10-28T05:44:27.100Z,16.10
2022-10-28T22:07:57.097Z,11.63
2022-10-28T22:57:03.751Z,8.20
2022-10-28T23:01:31.353Z,8.30
2022-10-28T23:32:54.971Z,8.60
2022-10-28T23:41:17.012Z,7.93
